Time;durP1;ratioP1;P1;durP2;ratioP2;P2;SDS_P1;SDS_P2;PMS_P1;PMS_P2;Temp;Humidity;BMP_temperature;BMP_pressure;BME280_temperature;BME280_humidity;BME280_pressure;Samples;Min_cycle;Max_cycle;Signal;HPM_P1;HPM_P2
2022/05/22 00:00:44;;;;;;;;;;;;;;;9.96;74.86;100786.13;1652129;85;20221;-84
2022/05/22 00:03:08;;;;;;;;;;;;;;;10.05;74.91;100786.39;1615637;87;20706;-85
2022/05/22 00:05:35;;;;;;;;;;;;;;;10.14;74.88;100783.13;1628340;85;20174;-85
2022/05/22 00:08:01;;;;;;;;;;;;;;;10.22;74.83;100783.34;1643140;81;20202;-85
2022/05/22 00:10:28;;;;;;;;;;;;;;;10.30;74.78;100789.69;1656811;81;20505;-85
2022/05/22 00:13:18;;;;;;;;;;;;;;;10.34;74.62;100783.69;1654218;85;20193;-85
2022/05/22 00:18:40;;;;;;;;;;;;;;;10.33;74.21;100779.72;1652689;85;20309;-84
2022/05/22 00:21:07;;;;;;;;;;;;;;;10.25;74.14;100785.63;1652749;85;20244;-83
2022/05/22 00:23:33;;;;;;;;;;;;;;;10.19;74.14;100778.90;1658138;85;20505;-84
2022/05/22 00:26:00;;;;;;;;;;;;;;;10.12;74.17;100780.45;1655609;85;20233;-84
2022/05/22 00:28:26;;;;;;;;;;;;;;;10.07;74.25;100775.92;1652660;85;21920;-84
2022/05/22 00:30:53;;;;;;;;;;;;;;;10.02;74.24;100778.84;1652499;85;21003;-84
2022/05/22 00:33:19;;;;;;;;;;;;;;;9.97;74.35;100782.67;1647557;85;20229;-84
2022/05/22 00:35:45;;;;;;;;;;;;;;;9.91;74.38;100783.39;1639912;86;20627;-84
2022/05/22 00:38:12;;;;;;;;;;;;;;;9.86;74.47;100787.62;1640347;87;20223;-85
2022/05/22 00:40:39;;;;;;;;;;;;;;;9.82;74.49;100788.81;1644925;85;21740;-85
2022/05/22 00:43:05;;;;;;;;;;;;;;;9.78;74.42;100782.58;1648738;85;20645;-85
2022/05/22 00:45:31;;;;;;;;;;;;;;;9.77;74.42;100786.47;1649690;85;21068;-84
2022/05/22 00:48:00;;;;;;;;;;;;;;;9.73;74.32;100782.86;1631824;85;20232;-85
2022/05/22 00:50:26;;;;;;;;;;;;;;;9.69;74.21;100773.99;1646501;85;20991;-85
2022/05/22 00:52:54;;;;;;;;;;;;;;;9.67;74.09;100776.13;1649345;85;21211;-85
2022/05/22 00:55:23;;;;;;;;;;;;;;;9.64;74.03;100783.91;1648100;87;20205;-84
2022/05/22 00:57:52;;;;;;;;;;;;;;;9.60;74.00;100776.78;1622905;87;20233;-84
2022/05/22 01:00:21;;;;;;;;;;;;;;;9.58;73.86;100774.53;1648237;85;20540;-85
2022/05/22 01:05:33;;;;;;;;;;;;;;;9.52;73.60;100766.05;1645905;85;21815;-85
2022/05/22 01:08:00;;;;;;;;;;;;;;;9.47;73.52;100771.16;1649195;86;20215;-85
2022/05/22 01:10:44;;;;;;;;;;;;;;;9.42;73.48;100768.84;1653875;85;20207;-85
2022/05/22 01:13:16;;;;;;;;;;;;;;;9.40;73.50;100769.61;1660033;85;20580;-85
2022/05/22 01:15:43;;;;;;;;;;;;;;;9.33;73.47;100761.56;1650929;85;20212;-85
2022/05/22 01:18:10;;;;;;;;;;;;;;;9.30;73.50;100766.70;1639624;87;21802;-85
2022/05/22 01:20:37;;;;;;;;;;;;;;;9.27;73.54;100764.41;1650233;85;20252;-85
2022/05/22 01:23:03;;;;;;;;;;;;;;;9.24;73.61;100766.96;1639946;85;20222;-85
2022/05/22 01:25:31;;;;;;;;;;;;;;;9.21;73.64;100767.73;1666661;86;20621;-84
2022/05/22 01:27:58;;;;;;;;;;;;;;;9.18;73.71;100774.23;1649186;85;20274;-83
2022/05/22 01:30:26;;;;;;;;;;;;;;;9.15;73.74;100767.12;1639727;85;21752;-84
2022/05/22 01:32:52;;;;;;;;;;;;;;;9.13;73.85;100766.19;1648388;87;20219;-83
2022/05/22 01:35:21;;;;;;;;;;;;;;;9.12;73.96;100773.62;1649536;85;20239;-83
2022/05/22 01:37:48;;;;;;;;;;;;;;;9.11;74.04;100773.56;1649137;85;21052;-84
2022/05/22 01:40:15;;;;;;;;;;;;;;;9.10;74.07;100765.20;1646182;85;20246;-84
2022/05/22 01:42:42;;;;;;;;;;;;;;;9.08;74.28;100776.96;1646132;85;21812;-83
2022/05/22 01:45:08;;;;;;;;;;;;;;;9.08;74.27;100776.08;1649075;85;20238;-84
2022/05/22 01:47:35;;;;;;;;;;;;;;;9.05;74.34;100771.64;1646644;85;20201;-84
2022/05/22 01:50:03;;;;;;;;;;;;;;;9.04;74.42;100788.64;1648748;85;21254;-84
2022/05/22 01:52:29;;;;;;;;;;;;;;;9.01;74.50;100788.14;1650483;85;20252;-84
2022/05/22 01:54:56;;;;;;;;;;;;;;;9.00;74.60;100792.91;1661938;85;21742;-84
2022/05/22 01:57:22;;;;;;;;;;;;;;;9.00;74.66;100794.22;1664672;85;20393;-83
2022/05/22 01:59:48;;;;;;;;;;;;;;;8.97;74.68;100791.48;1665091;84;20238;-83
2022/05/22 02:02:15;;;;;;;;;;;;;;;8.95;74.93;100794.48;1665044;85;20500;-83
2022/05/22 02:04:42;;;;;;;;;;;;;;;8.92;74.91;100796.59;1665028;84;20219;-83
2022/05/22 02:09:54;;;;;;;;;;;;;;;8.88;75.01;100796.47;1665274;84;20575;-84
2022/05/22 02:12:20;;;;;;;;;;;;;;;8.88;75.04;100802.59;1664853;85;20219;-84
2022/05/22 02:14:46;;;;;;;;;;;;;;;8.84;75.04;100808.59;1664733;85;20397;-84
2022/05/22 02:17:13;;;;;;;;;;;;;;;8.84;75.11;100808.99;1664591;84;20324;-84
2022/05/22 02:19:39;;;;;;;;;;;;;;;8.83;75.15;100809.85;1664682;85;21857;-84
2022/05/22 02:22:06;;;;;;;;;;;;;;;8.82;75.16;100806.34;1663880;84;20339;-84
2022/05/22 02:24:33;;;;;;;;;;;;;;;8.81;75.16;100806.29;1664281;85;20253;-84
2022/05/22 02:27:01;;;;;;;;;;;;;;;8.80;75.06;100796.62;1664184;85;20336;-84
2022/05/22 02:32:13;;;;;;;;;;;;;;;8.79;75.04;100791.80;1605609;86;20747;-84
2022/05/22 02:34:39;;;;;;;;;;;;;;;8.80;75.00;100792.68;1664665;85;20231;-83
2022/05/22 02:37:06;;;;;;;;;;;;;;;8.79;75.00;100797.48;1664714;85;20514;-85
2022/05/22 02:39:33;;;;;;;;;;;;;;;8.78;74.93;100789.12;1664727;85;20466;-83
2022/05/22 02:42:04;;;;;;;;;;;;;;;8.79;74.92;100790.91;1664643;85;20877;-84
2022/05/22 02:44:30;;;;;;;;;;;;;;;8.79;75.00;100793.11;1664785;85;21759;-85
2022/05/22 02:46:57;;;;;;;;;;;;;;;8.79;74.84;100791.80;1664614;85;20203;-84
2022/05/22 02:49:24;;;;;;;;;;;;;;;8.79;74.79;100793.54;1664703;85;20228;-84
2022/05/22 02:51:50;;;;;;;;;;;;;;;8.80;74.78;100804.06;1712611;83;20391;-84
2022/05/22 02:54:17;;;;;;;;;;;;;;;8.83;74.72;100805.48;1704559;83;20239;-84
2022/05/22 02:56:43;;;;;;;;;;;;;;;8.84;74.69;100803.74;1710391;83;22673;-84
2022/05/22 02:59:10;;;;;;;;;;;;;;;8.86;74.67;100811.25;1705939;83;20216;-84
2022/05/22 03:01:43;;;;;;;;;;;;;;;8.89;74.60;100806.11;1708379;83;20894;-84
2022/05/22 03:04:10;;;;;;;;;;;;;;;8.92;74.48;100804.91;1701929;83;20462;-86
2022/05/22 03:06:39;;;;;;;;;;;;;;;8.95;74.36;100803.28;1701656;83;20909;-86
2022/05/22 03:09:14;;;;;;;;;;;;;;;8.99;74.26;100809.52;1694684;83;21771;-83
2022/05/22 03:11:40;;;;;;;;;;;;;;;9.04;74.14;100809.66;1702045;83;20196;-85
2022/05/22 03:14:07;;;;;;;;;;;;;;;9.17;74.27;100812.25;1713992;83;21049;-85
2022/05/22 03:16:33;;;;;;;;;;;;;;;9.26;73.96;100816.05;1714029;83;20543;-85
2022/05/22 03:19:03;;;;;;;;;;;;;;;9.31;73.78;100808.34;1713556;82;20236;-85
2022/05/22 03:21:30;;;;;;;;;;;;;;;9.42;73.80;100806.93;1704155;83;22625;-85
2022/05/22 03:23:56;;;;;;;;;;;;;;;9.54;73.63;100810.34;1706708;83;20772;-85
2022/05/22 03:26:23;;;;;;;;;;;;;;;9.67;73.47;100811.17;1713456;82;20601;-85
2022/05/22 03:28:49;;;;;;;;;;;;;;;9.80;73.40;100805.86;1713642;83;21159;-84
2022/05/22 03:31:16;;;;;;;;;;;;;;;10.04;73.31;100813.55;1713366;82;20240;-85
2022/05/22 03:33:42;;;;;;;;;;;;;;;10.41;73.62;100809.75;1680317;84;24109;-85
2022/05/22 03:36:09;;;;;;;;;;;;;;;11.28;74.21;100807.09;1708349;83;20259;-85
2022/05/22 03:38:35;;;;;;;;;;;;;;;12.82;74.85;100805.77;1702119;83;20224;-85
2022/05/22 03:41:01;;;;;;;;;;;;;;;14.57;73.50;100803.25;1713282;83;20383;-85
2022/05/22 03:43:28;;;;;;;;;;;;;;;16.09;71.98;100799.37;1696124;83;20555;-85
2022/05/22 03:45:55;;;;;;;;;;;;;;;17.43;69.27;100792.78;1695564;83;21776;-85
2022/05/22 03:48:21;;;;;;;;;;;;;;;18.13;66.09;100791.22;1698588;83;20240;-86
2022/05/22 03:50:51;;;;;;;;;;;;;;;18.96;65.30;100780.89;1712184;82;20751;-86
2022/05/22 03:53:17;;;;;;;;;;;;;;;19.92;63.66;100795.91;1703512;82;20317;-85
2022/05/22 03:55:44;;;;;;;;;;;;;;;20.74;61.88;100796.52;1690121;83;20132;-85
2022/05/22 03:58:11;;;;;;;;;;;;;;;21.40;60.23;100790.45;1680717;83;21468;-86
2022/05/22 04:00:37;;;;;;;;;;;;;;;22.05;58.85;100795.85;1689029;81;20639;-86
2022/05/22 04:03:03;;;;;;;;;;;;;;;22.66;57.32;100785.09;1687736;83;20293;-85
2022/05/22 04:05:30;;;;;;;;;;;;;;;23.16;56.18;100787.89;1700603;83;20380;-85
2022/05/22 04:07:58;;;;;;;;;;;;;;;23.59;54.28;100792.95;1702354;83;20227;-85
2022/05/22 04:10:27;;;;;;;;;;;;;;;24.15;53.48;100790.03;1689098;83;22724;-85
2022/05/22 04:12:53;;;;;;;;;;;;;;;24.60;50.73;100789.06;1684170;83;20253;-85
2022/05/22 04:15:20;;;;;;;;;;;;;;;25.03;51.17;100788.09;1684388;83;20254;-85
2022/05/22 04:17:46;;;;;;;;;;;;;;;25.46;49.02;100785.27;1694167;83;21291;-85
2022/05/22 04:20:14;;;;;;;;;;;;;;;25.67;48.73;100782.23;1686320;83;20255;-85
2022/05/22 04:25:26;;;;;;;;;;;;;;;26.28;46.76;100791.17;1692844;83;20272;-84
2022/05/22 04:27:52;;;;;;;;;;;;;;;26.27;44.78;100785.36;1692068;83;20456;-84
2022/05/22 04:30:18;;;;;;;;;;;;;;;26.20;44.37;100786.53;1690367;83;20391;-85
2022/05/22 04:32:49;;;;;;;;;;;;;;;26.56;43.88;100788.72;1689086;83;20802;-85
2022/05/22 04:35:15;;;;;;;;;;;;;;;26.69;42.22;100779.20;1692966;83;22560;-85
2022/05/22 04:37:42;;;;;;;;;;;;;;;26.65;42.19;100774.84;1692912;83;20684;-84
2022/05/22 04:40:09;;;;;;;;;;;;;;;27.00;41.29;100775.67;1673517;83;20222;-85
2022/05/22 04:42:35;;;;;;;;;;;;;;;27.40;41.48;100772.11;1693114;83;21674;-85
2022/05/22 04:45:05;;;;;;;;;;;;;;;27.54;39.24;100777.78;1693026;83;20281;-85
2022/05/22 04:47:40;;;;;;;;;;;;;;;27.22;39.14;100771.09;1693113;84;21779;-85
2022/05/22 04:50:07;;;;;;;;;;;;;;;27.49;39.65;100778.94;1692867;83;20245;-86
2022/05/22 04:52:33;;;;;;;;;;;;;;;28.33;39.03;100777.33;1693137;84;20965;-85
2022/05/22 04:55:00;;;;;;;;;;;;;;;28.75;38.27;100778.88;1690958;83;20358;-85
2022/05/22 04:57:26;;;;;;;;;;;;;;;28.97;37.42;100782.73;1660939;84;20213;-85
2022/05/22 04:59:53;;;;;;;;;;;;;;;29.24;37.32;100788.58;1684490;83;21843;-85
2022/05/22 05:02:19;;;;;;;;;;;;;;;29.61;36.94;100788.84;1688513;83;20518;-85
2022/05/22 05:04:48;;;;;;;;;;;;;;;29.65;36.50;100794.98;1688939;83;20217;-86
2022/05/22 05:07:15;;;;;;;;;;;;;;;29.74;35.38;100783.67;1704134;83;20426;-85
2022/05/22 05:09:41;;;;;;;;;;;;;;;29.60;35.29;100803.84;1688774;83;20217;-86
2022/05/22 05:12:09;;;;;;;;;;;;;;;29.70;34.34;100808.31;1685561;83;21932;-86
2022/05/22 05:14:37;;;;;;;;;;;;;;;29.87;33.59;100809.66;1702597;83;20820;-85
2022/05/22 05:17:11;;;;;;;;;;;;;;;29.52;33.64;100806.97;1690281;82;20217;-85
2022/05/22 05:19:37;;;;;;;;;;;;;;;29.48;33.11;100813.52;1689155;83;20446;-85
2022/05/22 05:22:04;;;;;;;;;;;;;;;29.01;32.99;100810.94;1684313;83;20247;-85
2022/05/22 05:24:30;;;;;;;;;;;;;;;28.68;32.83;100808.99;1712145;82;23141;-85
2022/05/22 05:26:57;;;;;;;;;;;;;;;28.57;32.38;100813.16;1690459;83;20558;-85
2022/05/22 05:29:25;;;;;;;;;;;;;;;28.02;32.57;100809.90;1691384;83;20233;-84
2022/05/22 05:31:52;;;;;;;;;;;;;;;27.52;32.55;100817.53;1692675;83;21650;-85
2022/05/22 05:34:18;;;;;;;;;;;;;;;26.83;32.70;100814.20;1692974;83;21032;-85
2022/05/22 05:36:45;;;;;;;;;;;;;;;24.84;32.91;100821.02;1671803;83;21164;-85
2022/05/22 05:39:12;;;;;;;;;;;;;;;22.84;34.01;100825.36;1687489;83;21377;-87
2022/05/22 05:41:38;;;;;;;;;;;;;;;21.11;35.30;100831.13;1681113;83;20490;-86
2022/05/22 05:44:08;;;;;;;;;;;;;;;19.68;36.81;100833.98;1687176;83;20683;-85
2022/05/22 05:46:44;;;;;;;;;;;;;;;18.62;38.18;100838.45;1677570;82;20321;-85
2022/05/22 05:49:12;;;;;;;;;;;;;;;17.75;39.53;100848.16;1670942;83;22425;-85
2022/05/22 05:51:38;;;;;;;;;;;;;;;17.08;40.93;100841.63;1667352;83;20247;-86
2022/05/22 05:54:05;;;;;;;;;;;;;;;16.79;41.92;100846.01;1678588;83;20258;-86
2022/05/22 05:56:31;;;;;;;;;;;;;;;16.58;42.44;100839.78;1671406;83;21186;-85
2022/05/22 05:58:57;;;;;;;;;;;;;;;16.32;42.89;100847.69;1670617;83;20290;-86
2022/05/22 06:01:24;;;;;;;;;;;;;;;15.86;43.65;100851.48;1672749;84;21853;-86
2022/05/22 06:03:55;;;;;;;;;;;;;;;15.42;44.53;100854.73;1680247;83;20955;-86
2022/05/22 06:06:32;;;;;;;;;;;;;;;15.01;45.26;100864.14;1670261;83;20256;-86
2022/05/22 06:09:03;;;;;;;;;;;;;;;14.59;46.39;100861.55;1662080;84;20273;-86
2022/05/22 06:11:26;;;;;;;;;;;;;;;14.23;47.16;100861.97;1671865;83;20255;-85
2022/05/22 06:13:57;;;;;;;;;;;;;;;14.09;48.34;100877.70;1683303;83;21961;-85
2022/05/22 06:16:26;;;;;;;;;;;;;;;13.94;48.18;100875.74;1684179;83;20580;-85
2022/05/22 06:18:52;;;;;;;;;;;;;;;13.75;48.56;100878.13;1692683;83;20273;-86
2022/05/22 06:21:24;;;;;;;;;;;;;;;13.67;49.09;100873.19;1704055;83;20450;-86
2022/05/22 06:23:50;;;;;;;;;;;;;;;13.63;49.34;100887.64;1663493;83;20198;-86
2022/05/22 06:26:20;;;;;;;;;;;;;;;13.49;49.58;100882.16;1684143;84;21809;-86
2022/05/22 06:29:00;;;;;;;;;;;;;;;13.27;49.98;100881.81;1686413;83;20253;-86
2022/05/22 06:31:28;;;;;;;;;;;;;;;13.06;50.47;100890.69;1680726;83;20277;-85
2022/05/22 06:33:54;;;;;;;;;;;;;;;12.97;50.84;100893.64;1682018;83;20307;-85
2022/05/22 06:36:22;;;;;;;;;;;;;;;12.85;51.44;100905.30;1681442;83;20507;-85
2022/05/22 06:41:42;;;;;;;;;;;;;;;12.73;52.22;100903.33;1673165;83;20999;-85
2022/05/22 06:44:12;;;;;;;;;;;;;;;12.75;52.78;100900.72;1650059;84;20237;-86
2022/05/22 06:46:39;;;;;;;;;;;;;;;12.71;53.84;100903.73;1669612;83;21244;-86
2022/05/22 06:49:05;;;;;;;;;;;;;;;12.61;53.91;100904.00;1688725;83;20210;-86
2022/05/22 06:51:31;;;;;;;;;;;;;;;12.65;53.94;100904.95;1709436;82;22769;-86
2022/05/22 06:54:00;;;;;;;;;;;;;;;12.68;54.16;100905.42;1671648;84;21789;-86
2022/05/22 06:56:26;;;;;;;;;;;;;;;12.69;54.40;100898.86;1696518;83;20661;-85
2022/05/22 06:58:53;;;;;;;;;;;;;;;12.73;54.74;100900.69;1687088;83;20411;-86
2022/05/22 07:01:19;;;;;;;;;;;;;;;12.77;54.85;100902.52;1689012;83;20299;-85
2022/05/22 07:03:45;;;;;;;;;;;;;;;12.83;54.79;100892.49;1678680;83;22585;-85
2022/05/22 07:06:12;;;;;;;;;;;;;;;12.85;54.89;100907.94;1672395;83;20239;-85
2022/05/22 07:08:38;;;;;;;;;;;;;;;12.84;55.28;100898.25;1675039;83;20227;-86
2022/05/22 07:13:49;;;;;;;;;;;;;;;12.92;55.24;100901.91;1686798;83;20246;-85
2022/05/22 07:16:16;;;;;;;;;;;;;;;12.95;55.19;100898.42;1686339;83;22915;-87
2022/05/22 07:18:44;;;;;;;;;;;;;;;13.09;55.24;100898.67;1684509;83;20252;-87
2022/05/22 07:21:11;;;;;;;;;;;;;;;13.18;55.21;100901.48;1679732;83;20223;-87
2022/05/22 07:23:37;;;;;;;;;;;;;;;13.20;55.14;100891.82;1687097;83;20428;-87
2022/05/22 07:26:05;;;;;;;;;;;;;;;13.32;55.24;100890.71;1690719;83;20228;-86
2022/05/22 07:29:01;;;;;;;;;;;;;;;13.46;55.01;100888.30;1680545;83;21807;-86
2022/05/22 07:31:29;;;;;;;;;;;;;;;13.57;54.92;100897.29;1648103;84;20200;-85
2022/05/22 07:33:58;;;;;;;;;;;;;;;13.76;54.85;100902.41;1623461;86;20218;-85
2022/05/22 07:36:33;;;;;;;;;;;;;;;13.96;54.81;100898.73;1632268;84;20581;-86
2022/05/22 07:39:13;;;;;;;;;;;;;;;14.11;54.53;100901.98;1563592;86;20774;-87
2022/05/22 07:41:39;;;;;;;;;;;;;;;14.31;54.46;100901.37;1479530;93;23253;-83
2022/05/22 07:44:06;;;;;;;;;;;;;;;14.44;54.21;100903.73;1604924;86;20520;-84
2022/05/22 07:46:35;;;;;;;;;;;;;;;14.50;54.00;100899.38;1644928;85;20653;-83
2022/05/22 07:49:03;;;;;;;;;;;;;;;14.61;53.86;100895.56;1642763;85;20860;-84
2022/05/22 07:51:29;;;;;;;;;;;;;;;14.64;53.45;100910.17;1652468;85;20223;-85
2022/05/22 07:53:55;;;;;;;;;;;;;;;14.60;53.37;100906.14;1639317;85;21736;-82
2022/05/22 07:56:22;;;;;;;;;;;;;;;14.65;53.46;100905.76;1641832;84;20225;-86
2022/05/22 07:58:52;;;;;;;;;;;;;;;14.74;53.42;100904.09;1646715;85;20579;-86
2022/05/22 08:01:18;;;;;;;;;;;;;;;14.87;53.36;100909.08;1639766;85;20414;-86
2022/05/22 08:03:45;;;;;;;;;;;;;;;14.94;53.10;100906.95;1637052;85;20198;-86
2022/05/22 08:06:12;;;;;;;;;;;;;;;15.04;52.87;100901.29;1635725;85;21739;-81
2022/05/22 08:08:38;;;;;;;;;;;;;;;15.07;52.73;100904.39;1638188;85;20167;-84
2022/05/22 08:11:06;;;;;;;;;;;;;;;15.12;52.82;100902.68;1639068;85;20466;-85
2022/05/22 08:13:39;;;;;;;;;;;;;;;15.21;52.54;100905.86;1642183;85;21182;-92
2022/05/22 08:16:04;;;;;;;;;;;;;;;15.34;52.67;100905.95;1640237;86;20221;-84
2022/05/22 08:18:36;;;;;;;;;;;;;;;15.36;52.10;100896.70;1640673;85;21824;-84
2022/05/22 08:21:06;;;;;;;;;;;;;;;15.52;52.33;100891.96;1636634;85;20824;-84
2022/05/22 08:23:31;;;;;;;;;;;;;;;15.80;52.30;100890.81;1636530;85;20210;-84
2022/05/22 08:25:58;;;;;;;;;;;;;;;16.11;52.19;100901.16;1635112;85;20488;-84
2022/05/22 08:28:24;;;;;;;;;;;;;;;16.27;51.52;100903.88;1631475;85;20250;-84
2022/05/22 08:30:53;;;;;;;;;;;;;;;16.26;51.17;100900.80;1633377;85;21830;-82
2022/05/22 08:33:24;;;;;;;;;;;;;;;16.34;51.45;100908.34;1625510;86;20238;-84
2022/05/22 08:35:51;;;;;;;;;;;;;;;16.39;50.85;100903.06;1629234;85;20230;-84
2022/05/22 08:38:21;;;;;;;;;;;;;;;16.35;50.93;100907.89;1632323;85;20577;-84
2022/05/22 08:40:59;;;;;;;;;;;;;;;16.37;51.03;100906.12;1638298;85;20654;-84
2022/05/22 08:43:36;;;;;;;;;;;;;;;16.53;51.13;100902.65;1620752;85;21774;-84
2022/05/22 08:46:12;;;;;;;;;;;;;;;16.74;50.95;100905.80;1633875;85;20234;-84
2022/05/22 08:48:45;;;;;;;;;;;;;;;16.72;50.56;100910.22;1637212;85;20217;-84
2022/05/22 08:51:15;;;;;;;;;;;;;;;16.51;50.60;100907.08;1638805;85;20402;-84
2022/05/22 08:53:58;;;;;;;;;;;;;;;16.41;50.93;100911.47;1633694;85;20202;-84
2022/05/22 08:59:21;;;;;;;;;;;;;;;15.92;50.45;100910.81;1638178;85;20298;-84
2022/05/22 09:02:23;;;;;;;;;;;;;;;;;;;;;
2022/05/22 09:04:55;;;;;;;;;;;;;;;15.16;51.24;100911.10;1635968;85;20666;-84
2022/05/22 09:07:34;;;;;;;;;;;;;;;15.10;51.66;100919.02;1640359;85;20251;-84
2022/05/22 09:10:06;;;;;;;;;;;;;;;14.85;51.84;100910.83;1638071;85;23086;-84
2022/05/22 09:12:53;;;;;;;;;;;;;;;14.81;51.99;100911.68;1625846;85;20671;-84
2022/05/22 09:15:22;;;;;;;;;;;;;;;14.73;52.33;100918.64;1635551;85;20299;-83
2022/05/22 09:18:18;;;;;;;;;;;;;;;14.61;52.50;100925.15;1649510;85;20618;-84
2022/05/22 09:20:58;;;;;;;;;;;;;;;14.59;52.68;100918.50;1622552;87;20215;-84
2022/05/22 09:23:34;;;;;;;;;;;;;;;14.46;52.76;100933.33;1633084;85;21702;-84
2022/05/22 09:26:37;;;;;;;;;;;;;;;14.29;53.03;100955.63;1631830;85;20210;-84
2022/05/22 09:29:13;;;;;;;;;;;;;;;14.14;53.13;100939.54;1635633;85;20233;-85
2022/05/22 09:32:17;;;;;;;;;;;;;;;14.11;53.42;100947.43;1637519;85;20408;-84
2022/05/22 09:34:50;;;;;;;;;;;;;;;14.06;53.46;100938.12;1640530;85;20231;-84
2022/05/22 09:37:27;;;;;;;;;;;;;;;14.02;53.85;100948.21;1630693;86;20430;-84
2022/05/22 09:40:14;;;;;;;;;;;;;;;14.08;53.94;100944.31;1632057;85;20877;-84
2022/05/22 09:43:06;;;;;;;;;;;;;;;14.06;53.79;100951.35;1637154;85;20218;-84
2022/05/22 09:45:54;;;;;;;;;;;;;;;14.04;53.92;100946.88;1624361;85;22684;-84
2022/05/22 09:48:24;;;;;;;;;;;;;;;14.00;53.91;100952.56;1629073;85;20743;-84
2022/05/22 09:50:57;;;;;;;;;;;;;;;13.91;53.94;100955.98;1631536;85;21834;-84
2022/05/22 09:53:39;;;;;;;;;;;;;;;13.72;54.12;100956.16;1641713;85;20538;-84
2022/05/22 09:56:15;;;;;;;;;;;;;;;13.68;54.33;100961.35;1641492;83;20233;-84
2022/05/22 09:58:54;;;;;;;;;;;;;;;13.69;54.47;100969.31;1650265;85;21299;-83
2022/05/22 10:01:32;;;;;;;;;;;;;;;13.68;54.56;100971.49;1652577;85;20223;-84
2022/05/22 10:04:35;;;;;;;;;;;;;;;13.72;54.77;100968.47;1638112;85;21831;-84
2022/05/22 10:07:15;;;;;;;;;;;;;;;13.72;54.79;100969.37;1638305;85;20217;-83
2022/05/22 10:10:00;;;;;;;;;;;;;;;13.73;55.00;100974.23;1641988;85;20370;-84
2022/05/22 10:12:39;;;;;;;;;;;;;;;13.65;55.20;100971.47;1657600;85;20412;-83
2022/05/22 10:15:09;;;;;;;;;;;;;;;13.77;55.27;100978.25;1649848;85;20995;-84
2022/05/22 10:18:05;;;;;;;;;;;;;;;13.83;55.46;100982.75;1650094;85;21796;-84
2022/05/22 10:21:09;;;;;;;;;;;;;;;13.84;55.23;100988.52;1651515;85;20879;-84
2022/05/22 10:23:57;;;;;;;;;;;;;;;13.75;55.33;100986.60;1645819;85;20348;-85
2022/05/22 10:26:36;;;;;;;;;;;;;;;13.67;55.56;101004.56;1642955;85;20334;-85
2022/05/22 10:29:33;;;;;;;;;;;;;;;13.57;55.67;101003.48;1639986;85;20846;-84
2022/05/22 10:32:08;;;;;;;;;;;;;;;13.50;55.93;101005.16;1634621;85;20265;-85
2022/05/22 10:34:47;;;;;;;;;;;;;;;13.45;56.29;101006.83;1633820;85;20235;-85
2022/05/22 10:37:29;;;;;;;;;;;;;;;13.41;56.71;100999.71;1639289;85;20228;-85
2022/05/22 10:39:57;;;;;;;;;;;;;;;13.40;57.18;100999.23;1643203;85;20411;-85
2022/05/22 10:42:45;;;;;;;;;;;;;;;13.40;57.30;100997.91;1633898;85;20215;-85
2022/05/22 10:45:32;;;;;;;;;;;;;;;13.50;57.60;101001.20;1638417;85;23065;-85
2022/05/22 10:47:55;;;;;;;;;;;;;;;13.65;57.47;101007.62;1617988;85;20615;-85
2022/05/22 10:50:33;;;;;;;;;;;;;;;13.67;57.34;101009.41;1615790;86;21165;-85
2022/05/22 10:53:00;;;;;;;;;;;;;;;13.73;57.64;101008.17;1645713;85;20448;-86
2022/05/22 10:55:31;;;;;;;;;;;;;;;13.89;57.55;101001.80;1646114;85;20163;-86
2022/05/22 10:58:05;;;;;;;;;;;;;;;14.02;57.38;101002.47;1687921;83;21730;-85
2022/05/22 11:00:34;;;;;;;;;;;;;;;14.10;57.19;101011.84;1693580;83;20216;-85
2022/05/22 11:05:55;;;;;;;;;;;;;;;14.09;56.92;101014.91;1618258;87;20341;-85
2022/05/22 11:08:43;;;;;;;;;;;;;;;14.06;56.79;101017.94;1693129;83;20256;-85
2022/05/22 11:11:12;;;;;;;;;;;;;;;14.03;56.84;101021.88;1685017;83;20752;-85
2022/05/22 11:13:43;;;;;;;;;;;;;;;14.05;56.93;101014.84;1688005;83;20834;-85
2022/05/22 11:16:13;;;;;;;;;;;;;;;14.05;56.65;101013.52;1685856;83;20255;-86
2022/05/22 11:18:39;;;;;;;;;;;;;;;14.04;56.55;101020.58;1691905;83;20476;-86
2022/05/22 11:21:20;;;;;;;;;;;;;;;14.02;56.47;101013.47;1691346;83;20622;-86
2022/05/22 11:24:21;;;;;;;;;;;;;;;14.04;56.52;101024.55;1688034;83;21824;-86
2022/05/22 11:27:18;;;;;;;;;;;;;;;14.03;56.53;101026.73;1681827;83;20251;-84
2022/05/22 11:29:52;;;;;;;;;;;;;;;14.17;56.64;101030.48;1684722;83;20259;-86
2022/05/22 11:32:51;;;;;;;;;;;;;;;14.32;56.51;101032.88;1690345;83;20393;-85
2022/05/22 11:35:42;;;;;;;;;;;;;;;14.39;56.36;101034.30;1678526;83;20270;-86
2022/05/22 11:41:04;;;;;;;;;;;;;;;14.41;56.21;101038.75;1643403;83;20243;-86
2022/05/22 11:44:09;;;;;;;;;;;;;;;14.43;56.02;101049.81;1680895;83;20208;-85
2022/05/22 11:46:52;;;;;;;;;;;;;;;14.42;55.80;101044.07;1692427;83;20394;-84
2022/05/22 11:49:46;;;;;;;;;;;;;;;14.51;55.98;101045.53;1688299;83;20206;-85
2022/05/22 11:55:40;;;;;;;;;;;;;;;14.73;56.02;101048.06;1686994;83;20576;-86
2022/05/22 11:58:27;;;;;;;;;;;;;;;14.89;55.79;101058.41;1640351;85;20232;-87
2022/05/22 12:01:00;;;;;;;;;;;;;;;14.81;55.33;101053.45;1630295;85;20481;-85
2022/05/22 12:03:46;;;;;;;;;;;;;;;14.70;55.47;101040.51;1602867;87;21129;-86
2022/05/22 12:06:30;;;;;;;;;;;;;;;14.80;55.12;101056.96;1644674;84;20290;-86
2022/05/22 12:09:28;;;;;;;;;;;;;;;14.72;54.95;101061.28;1675168;83;20227;-84
2022/05/22 12:12:13;;;;;;;;;;;;;;;14.66;54.96;101054.15;1682918;83;20255;-85
2022/05/22 12:14:52;;;;;;;;;;;;;;;14.72;55.06;101055.55;1674093;83;20400;-84
2022/05/22 12:17:24;;;;;;;;;;;;;;;14.81;54.75;101057.43;1670597;83;20220;-84
2022/05/22 12:19:59;;;;;;;;;;;;;;;14.85;54.69;101063.66;1677026;83;20554;-86
2022/05/22 12:25:18;;;;;;;;;;;;;;;14.87;54.30;101057.50;1620196;86;20261;-84
2022/05/22 12:27:46;;;;;;;;;;;;;;;14.90;54.02;101058.88;1641529;86;20246;-85
2022/05/22 12:30:38;;;;;;;;;;;;;;;14.87;54.04;101055.30;1649781;86;20267;-83
2022/05/22 12:33:07;;;;;;;;;;;;;;;14.94;54.25;101056.70;1643546;85;23168;-83
2022/05/22 12:35:34;;;;;;;;;;;;;;;15.21;54.46;101055.23;1641456;86;20594;-83
2022/05/22 12:38:05;;;;;;;;;;;;;;;15.61;54.39;101045.45;1640054;86;20261;-83
2022/05/22 12:40:47;;;;;;;;;;;;;;;15.74;53.47;101056.22;1646315;86;21639;-83
2022/05/22 12:43:20;;;;;;;;;;;;;;;15.87;53.48;101057.22;1651322;86;20935;-84
2022/05/22 12:45:50;;;;;;;;;;;;;;;16.00;52.91;101059.53;1644610;86;21892;-83
2022/05/22 12:48:35;;;;;;;;;;;;;;;16.16;53.16;101055.23;1641833;86;20348;-83
2022/05/22 12:51:14;;;;;;;;;;;;;;;16.41;52.94;101054.94;1638933;86;20254;-83
2022/05/22 12:53:42;;;;;;;;;;;;;;;16.65;52.99;101051.53;1638803;86;20401;-84
2022/05/22 12:56:24;;;;;;;;;;;;;;;17.01;52.65;101053.05;1647479;86;20208;-84
2022/05/22 12:58:56;;;;;;;;;;;;;;;17.25;52.05;101050.91;1636928;86;21757;-84
2022/05/22 13:01:37;;;;;;;;;;;;;;;17.46;51.55;101051.38;1643721;86;20262;-84
2022/05/22 13:04:22;;;;;;;;;;;;;;;17.47;50.61;101050.06;1647324;86;20251;-83
2022/05/22 13:06:53;;;;;;;;;;;;;;;17.20;50.41;101048.21;1655111;85;20376;-83
2022/05/22 13:09:25;;;;;;;;;;;;;;;17.13;50.80;101054.39;1641157;84;20288;-84
2022/05/22 13:12:06;;;;;;;;;;;;;;;16.95;50.36;101049.01;1642242;86;22618;-84
2022/05/22 13:14:43;;;;;;;;;;;;;;;16.66;50.29;101053.74;1638886;86;20408;-84
2022/05/22 13:17:10;;;;;;;;;;;;;;;16.50;50.82;101052.34;1636539;86;20311;-84
2022/05/22 13:19:53;;;;;;;;;;;;;;;16.63;50.80;101054.63;1643106;86;20265;-85
2022/05/22 13:22:35;;;;;;;;;;;;;;;16.77;50.77;101059.12;1637007;86;20272;-84
2022/05/22 13:25:07;;;;;;;;;;;;;;;16.70;50.60;101050.21;1632356;86;21893;-84
2022/05/22 13:27:38;;;;;;;;;;;;;;;16.80;50.27;101057.78;1608246;86;20898;-83
2022/05/22 13:30:26;;;;;;;;;;;;;;;16.63;49.48;101066.59;1638587;86;20230;-83
2022/05/22 13:32:58;;;;;;;;;;;;;;;16.47;49.84;101057.63;1642103;86;20522;-83
2022/05/22 13:35:35;;;;;;;;;;;;;;;16.49;50.58;101053.20;1647406;86;20260;-83
2022/05/22 13:38:04;;;;;;;;;;;;;;;16.58;50.36;101051.05;1637911;86;21736;-83